sensor_id;sensor_type;location;lat;lon;timestamp;P1;durP1;ratioP1;P2;durP2;ratioP2
74059;SDS011;62414;53.436;8.828;2023-04-01T00:02:11;17.08;;;5.80;;
74059;SDS011;62414;53.436;8.828;2023-04-01T00:04:36;15.67;;;6.20;;
74059;SDS011;62414;53.436;8.828;2023-04-01T00:07:02;16.87;;;6.50;;
74059;SDS011;62414;53.436;8.828;2023-04-01T00:09:27;16.93;;;5.80;;
74059;SDS011;62414;53.436;8.828;2023-04-01T00:11:53;18.60;;;6.47;;
74059;SDS011;62414;53.436;8.828;2023-04-01T00:14:18;17.40;;;6.50;;
74059;SDS011;62414;53.436;8.828;2023-04-01T00:16:45;17.63;;;6.25;;
74059;SDS011;62414;53.436;8.828;2023-04-01T00:19:10;17.33;;;6.72;;
74059;SDS011;62414;53.436;8.828;2023-04-01T00:21:36;17.37;;;6.57;;
74059;SDS011;62414;53.436;8.828;2023-04-01T00:24:01;20.03;;;6.83;;
74059;SDS011;62414;53.436;8.828;2023-04-01T00:26:27;18.87;;;6.63;;
74059;SDS011;62414;53.436;8.828;2023-04-01T00:28:52;18.73;;;6.85;;
74059;SDS011;62414;53.436;8.828;2023-04-01T00:31:18;18.63;;;7.00;;
74059;SDS011;62414;53.436;8.828;2023-04-01T00:33:45;20.40;;;7.55;;
74059;SDS011;62414;53.436;8.828;2023-04-01T00:36:11;20.73;;;7.63;;
74059;SDS011;62414;53.436;8.828;2023-04-01T00:38:38;20.70;;;8.10;;
74059;SDS011;62414;53.436;8.828;2023-04-01T00:41:04;22.77;;;7.60;;
74059;SDS011;62414;53.436;8.828;2023-04-01T00:43:29;22.63;;;7.40;;
74059;SDS011;62414;53.436;8.828;2023-04-01T00:45:55;23.77;;;7.47;;
74059;SDS011;62414;53.436;8.828;2023-04-01T00:48:21;23.60;;;8.32;;
74059;SDS011;62414;53.436;8.828;2023-04-01T00:50:50;27.05;;;8.65;;
74059;SDS011;62414;53.436;8.828;2023-04-01T00:53:17;26.10;;;8.87;;
74059;SDS011;62414;53.436;8.828;2023-04-01T00:55:45;24.73;;;8.75;;
74059;SDS011;62414;53.436;8.828;2023-04-01T00:58:14;24.95;;;9.13;;
74059;SDS011;62414;53.436;8.828;2023-04-01T01:00:41;25.25;;;8.82;;
74059;SDS011;62414;53.436;8.828;2023-04-01T01:03:07;27.58;;;8.73;;
74059;SDS011;62414;53.436;8.828;2023-04-01T01:05:36;28.30;;;8.90;;
74059;SDS011;62414;53.436;8.828;2023-04-01T01:08:12;27.13;;;8.32;;
74059;SDS011;62414;53.436;8.828;2023-04-01T01:10:39;24.65;;;8.23;;
74059;SDS011;62414;53.436;8.828;2023-04-01T01:13:07;25.97;;;8.90;;
74059;SDS011;62414;53.436;8.828;2023-04-01T01:15:36;26.88;;;9.10;;
74059;SDS011;62414;53.436;8.828;2023-04-01T01:18:05;24.75;;;8.95;;
74059;SDS011;62414;53.436;8.828;2023-04-01T01:20:45;27.30;;;9.00;;
74059;SDS011;62414;53.436;8.828;2023-04-01T01:26:18;24.95;;;8.65;;
74059;SDS011;62414;53.436;8.828;2023-04-01T01:29:00;27.35;;;9.25;;
74059;SDS011;62414;53.436;8.828;2023-04-01T01:31:32;28.88;;;8.82;;
74059;SDS011;62414;53.436;8.828;2023-04-01T01:34:02;24.45;;;8.38;;
74059;SDS011;62414;53.436;8.828;2023-04-01T01:36:36;27.80;;;9.07;;
74059;SDS011;62414;53.436;8.828;2023-04-01T01:39:06;27.17;;;8.95;;
74059;SDS011;62414;53.436;8.828;2023-04-01T01:41:33;31.77;;;9.43;;
74059;SDS011;62414;53.436;8.828;2023-04-01T01:44:00;28.00;;;9.68;;
74059;SDS011;62414;53.436;8.828;2023-04-01T01:46:28;27.25;;;8.85;;
74059;SDS011;62414;53.436;8.828;2023-04-01T01:48:55;27.70;;;8.90;;
74059;SDS011;62414;53.436;8.828;2023-04-01T01:51:21;26.15;;;8.93;;
74059;SDS011;62414;53.436;8.828;2023-04-01T01:53:48;28.77;;;9.07;;
74059;SDS011;62414;53.436;8.828;2023-04-01T01:56:16;26.60;;;9.00;;
74059;SDS011;62414;53.436;8.828;2023-04-01T01:58:43;28.38;;;9.20;;
74059;SDS011;62414;53.436;8.828;2023-04-01T02:01:13;25.67;;;8.52;;
74059;SDS011;62414;53.436;8.828;2023-04-01T02:03:41;27.70;;;8.93;;
74059;SDS011;62414;53.436;8.828;2023-04-01T02:06:08;27.10;;;8.48;;
74059;SDS011;62414;53.436;8.828;2023-04-01T02:08:38;25.93;;;8.33;;
74059;SDS011;62414;53.436;8.828;2023-04-01T02:11:07;26.33;;;8.95;;
74059;SDS011;62414;53.436;8.828;2023-04-01T02:13:39;23.83;;;8.63;;
74059;SDS011;62414;53.436;8.828;2023-04-01T02:16:06;29.95;;;9.70;;
74059;SDS011;62414;53.436;8.828;2023-04-01T02:18:35;27.45;;;8.80;;
74059;SDS011;62414;53.436;8.828;2023-04-01T02:21:01;23.63;;;8.73;;
74059;SDS011;62414;53.436;8.828;2023-04-01T02:23:28;28.25;;;8.88;;
74059;SDS011;62414;53.436;8.828;2023-04-01T02:25:54;26.02;;;8.98;;
74059;SDS011;62414;53.436;8.828;2023-04-01T02:28:21;28.03;;;8.87;;
74059;SDS011;62414;53.436;8.828;2023-04-01T02:30:47;26.92;;;9.00;;
74059;SDS011;62414;53.436;8.828;2023-04-01T02:33:14;28.70;;;9.25;;
74059;SDS011;62414;53.436;8.828;2023-04-01T02:35:40;26.63;;;9.07;;
74059;SDS011;62414;53.436;8.828;2023-04-01T02:38:06;22.95;;;8.15;;
74059;SDS011;62414;53.436;8.828;2023-04-01T02:40:43;24.92;;;8.68;;
74059;SDS011;62414;53.436;8.828;2023-04-01T02:43:10;26.45;;;8.77;;
74059;SDS011;62414;53.436;8.828;2023-04-01T02:45:37;22.60;;;8.07;;
74059;SDS011;62414;53.436;8.828;2023-04-01T02:48:02;23.02;;;8.50;;
74059;SDS011;62414;53.436;8.828;2023-04-01T02:50:28;23.27;;;8.50;;
74059;SDS011;62414;53.436;8.828;2023-04-01T02:52:54;27.13;;;8.70;;
74059;SDS011;62414;53.436;8.828;2023-04-01T02:55:19;27.70;;;8.60;;
74059;SDS011;62414;53.436;8.828;2023-04-01T02:57:45;24.80;;;8.82;;
74059;SDS011;62414;53.436;8.828;2023-04-01T03:00:11;28.37;;;8.50;;
74059;SDS011;62414;53.436;8.828;2023-04-01T03:02:39;25.73;;;8.77;;
74059;SDS011;62414;53.436;8.828;2023-04-01T03:05:05;26.67;;;7.93;;
74059;SDS011;62414;53.436;8.828;2023-04-01T03:07:31;24.65;;;8.05;;
74059;SDS011;62414;53.436;8.828;2023-04-01T03:09:56;26.63;;;8.53;;
74059;SDS011;62414;53.436;8.828;2023-04-01T03:12:22;25.90;;;8.15;;
74059;SDS011;62414;53.436;8.828;2023-04-01T03:14:50;25.65;;;8.57;;
74059;SDS011;62414;53.436;8.828;2023-04-01T03:17:16;23.57;;;7.73;;
74059;SDS011;62414;53.436;8.828;2023-04-01T03:19:43;24.05;;;7.97;;
74059;SDS011;62414;53.436;8.828;2023-04-01T03:22:09;27.53;;;8.30;;
74059;SDS011;62414;53.436;8.828;2023-04-01T03:24:35;24.92;;;8.48;;
74059;SDS011;62414;53.436;8.828;2023-04-01T03:27:00;24.17;;;7.83;;
74059;SDS011;62414;53.436;8.828;2023-04-01T03:29:26;25.90;;;8.27;;
74059;SDS011;62414;53.436;8.828;2023-04-01T03:31:51;27.93;;;7.60;;
74059;SDS011;62414;53.436;8.828;2023-04-01T03:34:17;25.70;;;7.80;;
74059;SDS011;62414;53.436;8.828;2023-04-01T03:36:44;23.55;;;7.03;;
74059;SDS011;62414;53.436;8.828;2023-04-01T03:39:09;24.50;;;7.57;;
74059;SDS011;62414;53.436;8.828;2023-04-01T03:41:40;23.80;;;7.63;;
74059;SDS011;62414;53.436;8.828;2023-04-01T03:44:05;23.85;;;7.63;;
74059;SDS011;62414;53.436;8.828;2023-04-01T03:46:31;24.67;;;7.50;;
74059;SDS011;62414;53.436;8.828;2023-04-01T03:48:56;23.23;;;7.60;;
74059;SDS011;62414;53.436;8.828;2023-04-01T03:51:22;24.45;;;7.70;;
74059;SDS011;62414;53.436;8.828;2023-04-01T03:53:49;23.42;;;7.93;;
74059;SDS011;62414;53.436;8.828;2023-04-01T03:56:15;24.13;;;7.83;;
74059;SDS011;62414;53.436;8.828;2023-04-01T03:58:41;23.10;;;7.50;;
74059;SDS011;62414;53.436;8.828;2023-04-01T04:01:14;25.92;;;7.93;;
74059;SDS011;62414;53.436;8.828;2023-04-01T04:03:45;24.70;;;7.37;;
74059;SDS011;62414;53.436;8.828;2023-04-01T04:06:11;26.45;;;8.05;;
74059;SDS011;62414;53.436;8.828;2023-04-01T04:08:37;25.95;;;7.82;;
74059;SDS011;62414;53.436;8.828;2023-04-01T04:11:03;22.70;;;7.43;;
74059;SDS011;62414;53.436;8.828;2023-04-01T04:13:29;23.95;;;7.95;;
74059;SDS011;62414;53.436;8.828;2023-04-01T04:15:59;21.37;;;7.70;;
74059;SDS011;62414;53.436;8.828;2023-04-01T04:18:25;23.42;;;7.13;;
74059;SDS011;62414;53.436;8.828;2023-04-01T04:20:51;23.77;;;7.60;;
74059;SDS011;62414;53.436;8.828;2023-04-01T04:23:17;23.87;;;7.50;;
74059;SDS011;62414;53.436;8.828;2023-04-01T04:25:52;23.63;;;7.63;;
74059;SDS011;62414;53.436;8.828;2023-04-01T04:28:19;25.73;;;8.35;;
74059;SDS011;62414;53.436;8.828;2023-04-01T04:30:45;24.98;;;7.60;;
74059;SDS011;62414;53.436;8.828;2023-04-01T04:33:11;24.27;;;7.70;;
74059;SDS011;62414;53.436;8.828;2023-04-01T04:35:36;21.80;;;6.90;;
74059;SDS011;62414;53.436;8.828;2023-04-01T04:38:01;25.92;;;8.63;;
74059;SDS011;62414;53.436;8.828;2023-04-01T04:40:27;27.00;;;8.00;;
74059;SDS011;62414;53.436;8.828;2023-04-01T04:42:52;26.80;;;8.27;;
74059;SDS011;62414;53.436;8.828;2023-04-01T04:45:20;29.83;;;8.02;;
74059;SDS011;62414;53.436;8.828;2023-04-01T04:47:52;21.85;;;7.22;;
74059;SDS011;62414;53.436;8.828;2023-04-01T04:50:18;23.37;;;6.83;;
74059;SDS011;62414;53.436;8.828;2023-04-01T04:52:43;19.97;;;6.50;;
74059;SDS011;62414;53.436;8.828;2023-04-01T04:55:09;23.73;;;7.53;;
74059;SDS011;62414;53.436;8.828;2023-04-01T04:57:34;23.50;;;7.17;;
74059;SDS011;62414;53.436;8.828;2023-04-01T05:00:00;23.63;;;7.03;;
74059;SDS011;62414;53.436;8.828;2023-04-01T05:02:41;23.30;;;7.18;;
74059;SDS011;62414;53.436;8.828;2023-04-01T05:05:06;24.60;;;7.95;;
74059;SDS011;62414;53.436;8.828;2023-04-01T05:07:32;26.48;;;8.07;;
74059;SDS011;62414;53.436;8.828;2023-04-01T05:09:58;23.00;;;7.22;;
74059;SDS011;62414;53.436;8.828;2023-04-01T05:12:25;25.53;;;7.77;;
74059;SDS011;62414;53.436;8.828;2023-04-01T05:15:01;24.08;;;7.75;;
74059;SDS011;62414;53.436;8.828;2023-04-01T05:17:28;22.48;;;7.60;;
74059;SDS011;62414;53.436;8.828;2023-04-01T05:19:55;22.63;;;7.03;;
74059;SDS011;62414;53.436;8.828;2023-04-01T05:22:20;21.15;;;6.93;;
74059;SDS011;62414;53.436;8.828;2023-04-01T05:24:46;24.77;;;7.65;;
74059;SDS011;62414;53.436;8.828;2023-04-01T05:27:12;20.00;;;6.60;;
74059;SDS011;62414;53.436;8.828;2023-04-01T05:29:39;20.00;;;6.57;;
74059;SDS011;62414;53.436;8.828;2023-04-01T05:32:07;21.80;;;6.88;;
74059;SDS011;62414;53.436;8.828;2023-04-01T05:34:35;19.95;;;6.97;;
74059;SDS011;62414;53.436;8.828;2023-04-01T05:37:02;22.07;;;7.07;;
74059;SDS011;62414;53.436;8.828;2023-04-01T05:39:27;22.13;;;6.97;;
74059;SDS011;62414;53.436;8.828;2023-04-01T05:41:53;21.05;;;6.63;;
74059;SDS011;62414;53.436;8.828;2023-04-01T05:44:18;19.67;;;6.70;;
74059;SDS011;62414;53.436;8.828;2023-04-01T05:47:02;20.30;;;6.95;;
74059;SDS011;62414;53.436;8.828;2023-04-01T05:49:28;20.65;;;7.28;;
74059;SDS011;62414;53.436;8.828;2023-04-01T05:51:53;20.53;;;6.83;;
74059;SDS011;62414;53.436;8.828;2023-04-01T05:54:20;21.10;;;6.60;;
74059;SDS011;62414;53.436;8.828;2023-04-01T05:56:46;20.83;;;6.20;;
74059;SDS011;62414;53.436;8.828;2023-04-01T05:59:11;17.98;;;6.00;;
74059;SDS011;62414;53.436;8.828;2023-04-01T06:01:37;19.60;;;6.73;;
74059;SDS011;62414;53.436;8.828;2023-04-01T06:04:03;17.70;;;5.90;;
74059;SDS011;62414;53.436;8.828;2023-04-01T06:06:29;18.60;;;6.13;;
74059;SDS011;62414;53.436;8.828;2023-04-01T06:09:07;18.33;;;6.32;;
74059;SDS011;62414;53.436;8.828;2023-04-01T06:11:39;19.15;;;6.50;;
74059;SDS011;62414;53.436;8.828;2023-04-01T06:14:16;18.50;;;6.35;;
74059;SDS011;62414;53.436;8.828;2023-04-01T06:16:57;16.65;;;5.53;;
74059;SDS011;62414;53.436;8.828;2023-04-01T06:19:31;16.03;;;5.77;;
74059;SDS011;62414;53.436;8.828;2023-04-01T06:22:16;18.10;;;5.68;;
74059;SDS011;62414;53.436;8.828;2023-04-01T06:28:15;15.77;;;6.03;;
74059;SDS011;62414;53.436;8.828;2023-04-01T06:31:03;19.40;;;6.43;;
74059;SDS011;62414;53.436;8.828;2023-04-01T06:33:40;19.87;;;6.50;;
74059;SDS011;62414;53.436;8.828;2023-04-01T06:36:15;18.58;;;6.57;;
74059;SDS011;62414;53.436;8.828;2023-04-01T06:41:52;20.00;;;6.60;;
74059;SDS011;62414;53.436;8.828;2023-04-01T06:44:31;19.60;;;6.65;;
74059;SDS011;62414;53.436;8.828;2023-04-01T06:47:23;17.07;;;6.10;;
74059;SDS011;62414;53.436;8.828;2023-04-01T06:50:15;16.55;;;5.78;;
74059;SDS011;62414;53.436;8.828;2023-04-01T06:53:05;14.00;;;5.25;;
74059;SDS011;62414;53.436;8.828;2023-04-01T06:56:00;15.02;;;5.95;;
74059;SDS011;62414;53.436;8.828;2023-04-01T06:58:57;12.73;;;4.10;;
74059;SDS011;62414;53.436;8.828;2023-04-01T07:01:27;6.37;;;2.13;;
74059;SDS011;62414;53.436;8.828;2023-04-01T07:03:55;3.33;;;1.10;;
74059;SDS011;62414;53.436;8.828;2023-04-01T07:06:25;3.60;;;1.20;;
74059;SDS011;62414;53.436;8.828;2023-04-01T07:08:54;3.30;;;1.10;;
74059;SDS011;62414;53.436;8.828;2023-04-01T07:11:22;3.05;;;1.00;;
74059;SDS011;62414;53.436;8.828;2023-04-01T07:14:25;3.20;;;0.90;;
74059;SDS011;62414;53.436;8.828;2023-04-01T07:16:58;3.50;;;1.17;;
74059;SDS011;62414;53.436;8.828;2023-04-01T07:19:27;2.90;;;1.00;;
74059;SDS011;62414;53.436;8.828;2023-04-01T07:22:03;3.63;;;1.40;;
74059;SDS011;62414;53.436;8.828;2023-04-01T07:24:48;3.40;;;1.40;;
74059;SDS011;62414;53.436;8.828;2023-04-01T07:27:13;4.23;;;1.70;;
74059;SDS011;62414;53.436;8.828;2023-04-01T07:29:40;5.25;;;1.70;;
74059;SDS011;62414;53.436;8.828;2023-04-01T07:32:14;4.57;;;1.88;;
74059;SDS011;62414;53.436;8.828;2023-04-01T07:34:55;5.00;;;2.38;;
74059;SDS011;62414;53.436;8.828;2023-04-01T07:37:28;5.17;;;1.97;;
74059;SDS011;62414;53.436;8.828;2023-04-01T07:39:57;4.45;;;1.92;;
74059;SDS011;62414;53.436;8.828;2023-04-01T07:42:40;5.30;;;2.35;;
74059;SDS011;62414;53.436;8.828;2023-04-01T07:45:14;4.60;;;2.00;;
74059;SDS011;62414;53.436;8.828;2023-04-01T07:47:48;5.10;;;2.30;;
74059;SDS011;62414;53.436;8.828;2023-04-01T07:50:25;3.90;;;1.80;;
74059;SDS011;62414;53.436;8.828;2023-04-01T07:52:54;3.35;;;1.50;;
74059;SDS011;62414;53.436;8.828;2023-04-01T07:55:28;3.55;;;1.35;;
74059;SDS011;62414;53.436;8.828;2023-04-01T07:58:01;3.40;;;1.50;;
74059;SDS011;62414;53.436;8.828;2023-04-01T08:00:37;3.70;;;1.52;;
74059;SDS011;62414;53.436;8.828;2023-04-01T08:03:28;3.47;;;1.50;;
74059;SDS011;62414;53.436;8.828;2023-04-01T08:05:58;4.00;;;1.77;;
74059;SDS011;62414;53.436;8.828;2023-04-01T08:08:30;3.75;;;1.65;;
74059;SDS011;62414;53.436;8.828;2023-04-01T08:11:04;4.57;;;1.80;;
74059;SDS011;62414;53.436;8.828;2023-04-01T08:13:56;4.20;;;1.73;;
74059;SDS011;62414;53.436;8.828;2023-04-01T08:16:56;5.40;;;2.40;;
74059;SDS011;62414;53.436;8.828;2023-04-01T08:19:43;4.78;;;2.00;;
74059;SDS011;62414;53.436;8.828;2023-04-01T08:22:15;4.57;;;2.17;;
74059;SDS011;62414;53.436;8.828;2023-04-01T08:24:43;4.78;;;2.15;;
74059;SDS011;62414;53.436;8.828;2023-04-01T08:27:12;3.85;;;1.80;;
74059;SDS011;62414;53.436;8.828;2023-04-01T08:29:42;4.33;;;2.27;;
74059;SDS011;62414;53.436;8.828;2023-04-01T08:32:12;4.30;;;2.05;;
74059;SDS011;62414;53.436;8.828;2023-04-01T08:34:42;5.00;;;1.75;;
74059;SDS011;62414;53.436;8.828;2023-04-01T08:37:20;5.07;;;2.03;;
74059;SDS011;62414;53.436;8.828;2023-04-01T08:39:52;4.82;;;2.10;;
74059;SDS011;62414;53.436;8.828;2023-04-01T08:45:26;4.90;;;2.30;;
74059;SDS011;62414;53.436;8.828;2023-04-01T08:48:13;4.03;;;2.00;;
74059;SDS011;62414;53.436;8.828;2023-04-01T08:50:56;5.43;;;2.40;;
74059;SDS011;62414;53.436;8.828;2023-04-01T08:53:36;4.60;;;2.10;;
74059;SDS011;62414;53.436;8.828;2023-04-01T08:56:17;4.13;;;1.90;;
74059;SDS011;62414;53.436;8.828;2023-04-01T08:59:04;5.90;;;1.90;;
74059;SDS011;62414;53.436;8.828;2023-04-01T09:01:45;4.55;;;2.03;;
74059;SDS011;62414;53.436;8.828;2023-04-01T09:04:39;4.00;;;1.63;;
74059;SDS011;62414;53.436;8.828;2023-04-01T09:07:21;3.80;;;1.70;;
74059;SDS011;62414;53.436;8.828;2023-04-01T09:12:52;4.10;;;1.88;;
74059;SDS011;62414;53.436;8.828;2023-04-01T09:15:54;3.67;;;1.75;;
74059;SDS011;62414;53.436;8.828;2023-04-01T09:18:54;4.05;;;1.70;;
74059;SDS011;62414;53.436;8.828;2023-04-01T09:21:40;5.30;;;2.58;;
74059;SDS011;62414;53.436;8.828;2023-04-01T09:24:17;5.53;;;2.33;;
74059;SDS011;62414;53.436;8.828;2023-04-01T09:26:58;4.80;;;2.38;;
74059;SDS011;62414;53.436;8.828;2023-04-01T09:29:32;6.65;;;3.10;;
74059;SDS011;62414;53.436;8.828;2023-04-01T09:32:12;5.72;;;2.95;;
74059;SDS011;62414;53.436;8.828;2023-04-01T09:35:00;6.43;;;3.10;;
74059;SDS011;62414;53.436;8.828;2023-04-01T09:37:36;6.57;;;3.10;;
74059;SDS011;62414;53.436;8.828;2023-04-01T09:40:16;6.15;;;3.35;;
74059;SDS011;62414;53.436;8.828;2023-04-01T09:42:49;5.75;;;2.85;;
74059;SDS011;62414;53.436;8.828;2023-04-01T09:45:35;5.88;;;2.80;;
74059;SDS011;62414;53.436;8.828;2023-04-01T09:48:09;5.40;;;2.70;;
74059;SDS011;62414;53.436;8.828;2023-04-01T09:50:42;6.70;;;2.93;;
74059;SDS011;62414;53.436;8.828;2023-04-01T09:53:21;6.07;;;3.22;;
74059;SDS011;62414;53.436;8.828;2023-04-01T10:05:43;5.83;;;2.93;;
74059;SDS011;62414;53.436;8.828;2023-04-01T10:08:41;5.30;;;2.80;;
74059;SDS011;62414;53.436;8.828;2023-04-01T10:11:33;5.05;;;2.58;;
74059;SDS011;62414;53.436;8.828;2023-04-01T10:17:12;5.20;;;2.70;;
74059;SDS011;62414;53.436;8.828;2023-04-01T10:20:01;5.53;;;2.70;;
74059;SDS011;62414;53.436;8.828;2023-04-01T10:22:54;5.57;;;2.75;;
74059;SDS011;62414;53.436;8.828;2023-04-01T10:25:29;5.65;;;2.72;;
74059;SDS011;62414;53.436;8.828;2023-04-01T10:31:57;5.88;;;2.30;;
74059;SDS011;62414;53.436;8.828;2023-04-01T10:37:54;4.85;;;2.05;;
74059;SDS011;62414;53.436;8.828;2023-04-01T10:40:35;4.05;;;2.10;;
74059;SDS011;62414;53.436;8.828;2023-04-01T10:46:44;4.30;;;2.03;;
74059;SDS011;62414;53.436;8.828;2023-04-01T10:49:41;4.70;;;2.13;;
74059;SDS011;62414;53.436;8.828;2023-04-01T10:55:31;4.28;;;2.33;;
74059;SDS011;62414;53.436;8.828;2023-04-01T10:58:27;6.65;;;3.35;;
74059;SDS011;62414;53.436;8.828;2023-04-01T11:01:51;5.10;;;2.80;;
74059;SDS011;62414;53.436;8.828;2023-04-01T11:14:11;4.68;;;2.00;;
74059;SDS011;62414;53.436;8.828;2023-04-01T11:17:14;4.25;;;2.15;;
74059;SDS011;62414;53.436;8.828;2023-04-01T11:19:56;3.97;;;1.90;;
74059;SDS011;62414;53.436;8.828;2023-04-01T11:22:56;4.10;;;2.00;;
74059;SDS011;62414;53.436;8.828;2023-04-01T11:28:54;4.35;;;2.20;;
74059;SDS011;62414;53.436;8.828;2023-04-01T11:31:34;4.90;;;2.80;;
74059;SDS011;62414;53.436;8.828;2023-04-01T11:34:04;4.27;;;2.40;;
74059;SDS011;62414;53.436;8.828;2023-04-01T11:36:40;3.60;;;1.90;;
74059;SDS011;62414;53.436;8.828;2023-04-01T11:39:22;4.13;;;2.10;;
74059;SDS011;62414;53.436;8.828;2023-04-01T11:42:06;4.13;;;2.22;;
74059;SDS011;62414;53.436;8.828;2023-04-01T11:44:53;3.92;;;2.10;;
74059;SDS011;62414;53.436;8.828;2023-04-01T11:47:41;3.50;;;1.80;;
74059;SDS011;62414;53.436;8.828;2023-04-01T11:50:21;4.40;;;1.90;;
74059;SDS011;62414;53.436;8.828;2023-04-01T11:52:59;4.00;;;1.90;;
74059;SDS011;62414;53.436;8.828;2023-04-01T11:55:30;4.35;;;2.00;;
74059;SDS011;62414;53.436;8.828;2023-04-01T11:58:06;4.28;;;1.92;;
74059;SDS011;62414;53.436;8.828;2023-04-01T12:03:39;3.72;;;1.45;;
74059;SDS011;62414;53.436;8.828;2023-04-01T12:06:13;3.78;;;1.63;;
74059;SDS011;62414;53.436;8.828;2023-04-01T12:08:44;4.05;;;1.70;;
74059;SDS011;62414;53.436;8.828;2023-04-01T12:11:15;3.45;;;1.50;;
74059;SDS011;62414;53.436;8.828;2023-04-01T12:13:45;3.17;;;1.30;;
74059;SDS011;62414;53.436;8.828;2023-04-01T12:16:21;3.88;;;1.55;;
74059;SDS011;62414;53.436;8.828;2023-04-01T12:19:10;3.67;;;1.30;;
74059;SDS011;62414;53.436;8.828;2023-04-01T12:21:42;2.60;;;1.00;;
74059;SDS011;62414;53.436;8.828;2023-04-01T12:27:01;2.63;;;1.00;;
74059;SDS011;62414;53.436;8.828;2023-04-01T12:30:05;3.00;;;0.95;;
74059;SDS011;62414;53.436;8.828;2023-04-01T12:32:40;3.30;;;1.40;;
74059;SDS011;62414;53.436;8.828;2023-04-01T12:35:17;3.08;;;1.10;;
74059;SDS011;62414;53.436;8.828;2023-04-01T12:37:48;3.30;;;1.65;;
74059;SDS011;62414;53.436;8.828;2023-04-01T12:40:35;3.43;;;1.10;;
74059;SDS011;62414;53.436;8.828;2023-04-01T12:43:15;3.00;;;1.20;;
74059;SDS011;62414;53.436;8.828;2023-04-01T12:45:54;2.88;;;1.10;;
74059;SDS011;62414;53.436;8.828;2023-04-01T12:48:23;3.20;;;1.30;;
74059;SDS011;62414;53.436;8.828;2023-04-01T12:51:05;3.22;;;1.30;;
74059;SDS011;62414;53.436;8.828;2023-04-01T12:54:02;3.87;;;1.40;;
74059;SDS011;62414;53.436;8.828;2023-04-01T12:56:39;3.88;;;1.40;;
74059;SDS011;62414;53.436;8.828;2023-04-01T12:59:16;3.55;;;1.50;;
74059;SDS011;62414;53.436;8.828;2023-04-01T13:01:55;3.60;;;1.40;;
74059;SDS011;62414;53.436;8.828;2023-04-01T13:04:31;3.38;;;1.20;;
74059;SDS011;62414;53.436;8.828;2023-04-01T13:10:20;4.13;;;1.60;;
74059;SDS011;62414;53.436;8.828;2023-04-01T13:13:01;4.97;;;1.77;;
74059;SDS011;62414;53.436;8.828;2023-04-01T13:15:38;5.45;;;2.30;;
74059;SDS011;62414;53.436;8.828;2023-04-01T13:18:11;4.90;;;2.05;;
74059;SDS011;62414;53.436;8.828;2023-04-01T13:20:43;5.33;;;2.30;;
74059;SDS011;62414;53.436;8.828;2023-04-01T13:23:13;6.28;;;2.65;;
74059;SDS011;62414;53.436;8.828;2023-04-01T13:25:50;6.40;;;2.40;;
74059;SDS011;62414;53.436;8.828;2023-04-01T13:28:20;5.53;;;2.50;;
74059;SDS011;62414;53.436;8.828;2023-04-01T13:30:49;7.57;;;2.47;;
74059;SDS011;62414;53.436;8.828;2023-04-01T13:33:23;5.53;;;2.33;;
74059;SDS011;62414;53.436;8.828;2023-04-01T13:35:54;6.68;;;2.60;;
74059;SDS011;62414;53.436;8.828;2023-04-01T13:38:30;6.20;;;2.50;;
74059;SDS011;62414;53.436;8.828;2023-04-01T13:41:05;6.43;;;2.75;;
74059;SDS011;62414;53.436;8.828;2023-04-01T13:43:39;7.95;;;2.92;;
74059;SDS011;62414;53.436;8.828;2023-04-01T13:46:08;6.50;;;2.80;;
74059;SDS011;62414;53.436;8.828;2023-04-01T13:48:47;6.95;;;2.88;;
74059;SDS011;62414;53.436;8.828;2023-04-01T13:51:29;6.45;;;2.85;;
74059;SDS011;62414;53.436;8.828;2023-04-01T13:57:06;6.00;;;2.75;;
74059;SDS011;62414;53.436;8.828;2023-04-01T13:59:40;5.50;;;2.43;;
74059;SDS011;62414;53.436;8.828;2023-04-01T14:05:40;6.90;;;3.05;;
74059;SDS011;62414;53.436;8.828;2023-04-01T14:08:15;6.47;;;3.15;;
74059;SDS011;62414;53.436;8.828;2023-04-01T14:10:46;8.48;;;3.30;;
74059;SDS011;62414;53.436;8.828;2023-04-01T14:13:17;9.43;;;4.17;;
74059;SDS011;62414;53.436;8.828;2023-04-01T14:15:51;7.28;;;3.40;;
74059;SDS011;62414;53.436;8.828;2023-04-01T14:18:33;17.50;;;8.60;;
74059;SDS011;62414;53.436;8.828;2023-04-01T14:21:10;18.23;;;7.47;;
74059;SDS011;62414;53.436;8.828;2023-04-01T14:23:46;10.50;;;4.25;;
74059;SDS011;62414;53.436;8.828;2023-04-01T14:26:27;11.77;;;4.10;;
74059;SDS011;62414;53.436;8.828;2023-04-01T14:28:58;8.00;;;4.10;;
74059;SDS011;62414;53.436;8.828;2023-04-01T14:31:30;8.98;;;4.38;;
74059;SDS011;62414;53.436;8.828;2023-04-01T14:34:05;9.63;;;4.28;;
74059;SDS011;62414;53.436;8.828;2023-04-01T14:36:45;9.05;;;3.95;;
74059;SDS011;62414;53.436;8.828;2023-04-01T14:39:22;10.17;;;4.97;;
74059;SDS011;62414;53.436;8.828;2023-04-01T14:41:57;8.82;;;4.25;;
74059;SDS011;62414;53.436;8.828;2023-04-01T14:44:30;12.32;;;4.88;;
74059;SDS011;62414;53.436;8.828;2023-04-01T14:49:50;9.93;;;4.07;;
74059;SDS011;62414;53.436;8.828;2023-04-01T14:52:24;10.13;;;4.57;;
74059;SDS011;62414;53.436;8.828;2023-04-01T14:54:52;9.18;;;4.28;;
74059;SDS011;62414;53.436;8.828;2023-04-01T14:57:22;13.88;;;7.50;;
74059;SDS011;62414;53.436;8.828;2023-04-01T14:59:49;9.90;;;4.20;;
74059;SDS011;62414;53.436;8.828;2023-04-01T15:02:24;8.07;;;4.30;;
74059;SDS011;62414;53.436;8.828;2023-04-01T15:05:15;11.43;;;5.90;;
74059;SDS011;62414;53.436;8.828;2023-04-01T15:07:54;9.68;;;4.97;;
74059;SDS011;62414;53.436;8.828;2023-04-01T15:10:39;11.70;;;6.32;;
74059;SDS011;62414;53.436;8.828;2023-04-01T15:13:12;9.57;;;4.40;;
74059;SDS011;62414;53.436;8.828;2023-04-01T15:15:41;16.08;;;7.75;;
74059;SDS011;62414;53.436;8.828;2023-04-01T15:18:17;9.33;;;4.57;;
74059;SDS011;62414;53.436;8.828;2023-04-01T15:20:49;13.65;;;6.78;;
74059;SDS011;62414;53.436;8.828;2023-04-01T15:23:26;8.02;;;3.30;;
74059;SDS011;62414;53.436;8.828;2023-04-01T15:26:03;11.20;;;4.70;;
74059;SDS011;62414;53.436;8.828;2023-04-01T15:28:49;8.93;;;4.13;;
74059;SDS011;62414;53.436;8.828;2023-04-01T15:31:24;7.53;;;3.20;;
74059;SDS011;62414;53.436;8.828;2023-04-01T15:33:56;8.23;;;3.70;;
74059;SDS011;62414;53.436;8.828;2023-04-01T15:36:33;12.18;;;4.82;;
74059;SDS011;62414;53.436;8.828;2023-04-01T15:39:10;9.68;;;3.67;;
74059;SDS011;62414;53.436;8.828;2023-04-01T15:41:40;9.88;;;3.97;;
74059;SDS011;62414;53.436;8.828;2023-04-01T15:46:51;10.40;;;4.85;;
74059;SDS011;62414;53.436;8.828;2023-04-01T15:49:22;11.60;;;4.67;;
74059;SDS011;62414;53.436;8.828;2023-04-01T15:52:02;11.48;;;4.68;;
74059;SDS011;62414;53.436;8.828;2023-04-01T15:57:37;9.45;;;4.07;;
74059;SDS011;62414;53.436;8.828;2023-04-01T16:00:10;10.02;;;4.05;;
74059;SDS011;62414;53.436;8.828;2023-04-01T16:02:43;9.80;;;3.70;;
74059;SDS011;62414;53.436;8.828;2023-04-01T16:05:21;10.20;;;4.35;;
74059;SDS011;62414;53.436;8.828;2023-04-01T16:07:55;11.73;;;4.13;;
74059;SDS011;62414;53.436;8.828;2023-04-01T16:10:34;10.15;;;4.00;;
74059;SDS011;62414;53.436;8.828;2023-04-01T16:13:13;10.43;;;4.53;;
74059;SDS011;62414;53.436;8.828;2023-04-01T16:15:51;11.50;;;4.30;;
74059;SDS011;62414;53.436;8.828;2023-04-01T16:21:14;11.90;;;4.05;;
74059;SDS011;62414;53.436;8.828;2023-04-01T16:23:55;10.68;;;4.60;;
74059;SDS011;62414;53.436;8.828;2023-04-01T16:26:23;10.30;;;3.75;;
74059;SDS011;62414;53.436;8.828;2023-04-01T16:28:53;10.80;;;4.43;;
74059;SDS011;62414;53.436;8.828;2023-04-01T16:31:25;13.02;;;4.35;;
74059;SDS011;62414;53.436;8.828;2023-04-01T16:33:58;9.55;;;3.70;;
74059;SDS011;62414;53.436;8.828;2023-04-01T16:36:28;11.25;;;3.78;;
74059;SDS011;62414;53.436;8.828;2023-04-01T16:42:09;12.43;;;3.90;;
74059;SDS011;62414;53.436;8.828;2023-04-01T16:44:44;10.77;;;4.05;;